createdAt,value
2019-05-03T00:00:42.511Z,0.2
2019-05-03T00:01:52.779Z,0.1
2019-05-03T00:03:01.841Z,0
2019-05-03T00:04:12.001Z,0.1
2019-05-03T00:05:21.880Z,0.2
2019-05-03T00:06:32.058Z,0.2
2019-05-03T00:07:42.055Z,0.2
2019-05-03T00:08:52.101Z,0.2
2019-05-03T00:10:02.781Z,0.4
2019-05-03T00:11:12.516Z,0.2
2019-05-03T00:12:22.236Z,0.1
2019-05-03T00:13:32.487Z,0.1
2019-05-03T00:14:42.013Z,0.1
2019-05-03T00:15:52.178Z,0.2
2019-05-03T00:17:02.263Z,0.2
2019-05-03T00:18:11.778Z,0.1
2019-05-03T00:19:21.898Z,0.3
2019-05-03T00:20:32.498Z,0.1
2019-05-03T00:21:41.961Z,0.1
2019-05-03T00:22:52.322Z,0.1
2019-05-03T00:24:02.434Z,0.1
2019-05-03T00:25:12.842Z,0.1
2019-05-03T00:26:22.522Z,0.1
2019-05-03T00:27:32.301Z,0.1
2019-05-03T00:28:42.767Z,0
2019-05-03T00:29:52.436Z,0.1
2019-05-03T00:31:01.935Z,0.1
2019-05-03T00:32:12.442Z,0.1
2019-05-03T00:33:22.414Z,0.1
2019-05-03T00:34:32.368Z,0.1
2019-05-03T00:35:42.406Z,0.1
2019-05-03T00:36:52.436Z,0.1
2019-05-03T00:38:02.121Z,0.1
2019-05-03T00:39:12.188Z,0.1
2019-05-03T00:40:21.537Z,0.1
2019-05-03T00:41:31.982Z,0.1
2019-05-03T00:42:42.352Z,0.2
2019-05-03T00:43:51.818Z,0.1
2019-05-03T00:45:02.262Z,0
2019-05-03T00:46:12.596Z,0.1
2019-05-03T00:47:22.233Z,0.1
2019-05-03T00:48:32.600Z,0.1
2019-05-03T00:49:42.547Z,0.2
2019-05-03T00:50:51.811Z,0.1
2019-05-03T00:52:02.310Z,0.1
2019-05-03T00:53:11.780Z,0.2
2019-05-03T00:54:22.263Z,0.2
2019-05-03T00:55:32.748Z,0.1
2019-05-03T00:56:44.375Z,0.2
2019-05-03T00:57:52.748Z,0.2
2019-05-03T00:59:02.332Z,0.1
2019-05-03T01:00:12.344Z,0.3
2019-05-03T01:01:22.496Z,0.2
2019-05-03T01:02:32.041Z,0.1
2019-05-03T01:03:41.822Z,0.1
2019-05-03T01:04:51.772Z,0.1
2019-05-03T01:06:02.248Z,0.1
2019-05-03T01:07:11.688Z,0.1
2019-05-03T01:08:21.989Z,0.1
2019-05-03T01:09:31.690Z,0.1
2019-05-03T01:10:42.102Z,0.2
2019-05-03T01:11:52.440Z,0.1
2019-05-03T01:13:01.760Z,0.2
2019-05-03T01:14:11.954Z,0.1
2019-05-03T01:15:21.523Z,0.1
2019-05-03T01:16:31.820Z,0
2019-05-03T01:17:41.960Z,0.1
2019-05-03T01:18:52.264Z,0.1
2019-05-03T01:20:02.725Z,0.1
2019-05-03T01:21:12.237Z,0.2
2019-05-03T01:22:22.572Z,0.2
2019-05-03T01:23:32.552Z,0.1
2019-05-03T01:24:42.768Z,0.1
2019-05-03T01:25:52.296Z,0.1
2019-05-03T01:27:02.064Z,0.2
2019-05-03T01:28:12.212Z,0.1
2019-05-03T01:29:22.600Z,0.2
2019-05-03T01:30:32.038Z,0.1
2019-05-03T01:31:42.137Z,0.1
2019-05-03T01:32:52.317Z,0.2
2019-05-03T01:34:02.405Z,0.2
2019-05-03T01:35:12.267Z,0.1
2019-05-03T01:36:22.753Z,0.1
2019-05-03T01:37:32.469Z,0.3
2019-05-03T01:38:42.396Z,0.2
2019-05-03T01:39:52.559Z,0.1
2019-05-03T01:41:02.020Z,0.1
2019-05-03T01:42:11.980Z,0.1
2019-05-03T01:43:22.161Z,0.1
2019-05-03T01:44:32.630Z,0.1
2019-05-03T01:45:42.516Z,0.2
2019-05-03T01:46:51.689Z,0.2
2019-05-03T01:48:02.007Z,0.2
2019-05-03T01:49:12.255Z,0.1
2019-05-03T01:50:22.843Z,0.3
2019-05-03T01:51:32.672Z,0.1
2019-05-03T01:52:42.264Z,0.1
2019-05-03T01:53:52.305Z,0.1
2019-05-03T01:55:03.251Z,0.2
2019-05-03T01:56:11.908Z,0.1
2019-05-03T01:57:22.043Z,0.2
2019-05-03T01:58:32.294Z,0.2
2019-05-03T01:59:42.556Z,0.3
2019-05-03T02:00:51.966Z,0.2
2019-05-03T02:02:02.248Z,0.1
2019-05-03T02:03:12.348Z,0.2
2019-05-03T02:04:21.634Z,0.2
2019-05-03T02:05:32.009Z,0.2
2019-05-03T02:06:42.447Z,0.1
2019-05-03T02:07:52.037Z,0.1
2019-05-03T02:09:01.689Z,0
2019-05-03T02:10:11.857Z,0.1
2019-05-03T02:11:22.176Z,0.3
2019-05-03T02:12:32.169Z,0.1
2019-05-03T02:13:42.735Z,0.1
2019-05-03T02:14:52.089Z,0.1
2019-05-03T02:16:02.254Z,0.1
2019-05-03T02:17:12.387Z,0.2
2019-05-03T02:18:22.285Z,0
2019-05-03T02:19:32.644Z,0.1
2019-05-03T02:20:41.857Z,0.2
2019-05-03T02:21:52.311Z,0.1
2019-05-03T02:23:02.697Z,0.1
2019-05-03T02:24:12.247Z,0.2
2019-05-03T02:25:21.903Z,0.1
2019-05-03T02:26:31.757Z,0.2
2019-05-03T02:27:42.193Z,0.1
2019-05-03T02:28:52.705Z,0.2
2019-05-03T02:30:02.945Z,0.2
2019-05-03T02:31:13.625Z,0.1
2019-05-03T02:32:23.359Z,0.2
2019-05-03T02:33:32.960Z,0.2
2019-05-03T02:34:43.816Z,0.1
2019-05-03T02:35:53.246Z,0.2
2019-05-03T02:37:02.900Z,0.3
2019-05-03T02:38:13.086Z,0.2
2019-05-03T02:39:22.774Z,0.1
2019-05-03T02:40:33.780Z,0.2
2019-05-03T02:41:45.966Z,0.2
2019-05-03T02:42:55.204Z,0.2
2019-05-03T02:44:06.255Z,0.2
2019-05-03T02:45:15.401Z,0.1
2019-05-03T02:46:25.300Z,0.1
2019-05-03T02:47:35.676Z,0.2
2019-05-03T02:48:45.796Z,0.1
2019-05-03T02:49:56.151Z,0
2019-05-03T02:51:06.498Z,0.1
2019-05-03T02:52:15.708Z,0.1
2019-05-03T02:53:25.807Z,0.1
2019-05-03T02:54:35.228Z,0.2
2019-05-03T02:55:45.467Z,0.2
2019-05-03T02:56:55.936Z,0.2
2019-05-03T02:58:05.688Z,0.2
2019-05-03T02:59:15.698Z,0.1
2019-05-03T03:00:25.463Z,0.1
2019-05-03T03:01:35.722Z,0.3
2019-05-03T03:02:45.679Z,0.2
2019-05-03T03:03:55.979Z,0.2
2019-05-03T03:05:05.821Z,0.2
2019-05-03T03:06:15.631Z,0.1
2019-05-03T03:07:25.802Z,0
2019-05-03T03:08:36.749Z,0.2
2019-05-03T03:09:45.436Z,0.1
2019-05-03T03:10:55.655Z,0.1
2019-05-03T03:12:06.024Z,0.1
2019-05-03T03:13:16.288Z,0.2
2019-05-03T03:14:25.857Z,0.1
2019-05-03T03:15:36.233Z,0.2
2019-05-03T03:16:45.739Z,0.2
2019-05-03T03:17:55.925Z,0.1
2019-05-03T03:19:06.546Z,0.2
2019-05-03T03:20:16.261Z,0.2
2019-05-03T03:21:26.602Z,0.1
2019-05-03T03:22:36.339Z,0.2
2019-05-03T03:23:46.127Z,0.1
2019-05-03T03:24:55.852Z,0.3
2019-05-03T03:26:06.150Z,0.2
2019-05-03T03:27:16.290Z,0.1
2019-05-03T03:28:25.691Z,0.2
2019-05-03T03:29:35.853Z,0.1
2019-05-03T03:30:48.506Z,0.1
2019-05-03T03:31:57.834Z,0.1
2019-05-03T03:33:08.587Z,0.2
2019-05-03T03:34:18.122Z,0.2
2019-05-03T03:35:29.609Z,0.1
2019-05-03T03:36:54.255Z,0.1
2019-05-03T03:37:47.754Z,0.1
2019-05-03T03:38:57.266Z,0.2
2019-05-03T03:40:06.768Z,0.1
2019-05-03T03:41:16.432Z,0.1
2019-05-03T03:42:25.829Z,0.1
2019-05-03T03:43:35.573Z,0.2
2019-05-03T03:44:45.411Z,0.1
2019-05-03T03:45:55.658Z,0
2019-05-03T03:47:05.419Z,0.1
2019-05-03T03:48:15.745Z,0.1
2019-05-03T03:49:26.148Z,0.1
2019-05-03T03:50:36.021Z,0.2
2019-05-03T03:51:45.478Z,0.1
2019-05-03T03:52:55.734Z,0
2019-05-03T03:54:06.015Z,0.3
2019-05-03T03:55:15.996Z,0.1
2019-05-03T03:56:25.530Z,0.1
2019-05-03T03:57:35.617Z,0.2
2019-05-03T03:58:46.378Z,0.2
2019-05-03T03:59:56.229Z,0.1
2019-05-03T04:01:06.054Z,0.2
2019-05-03T04:02:16.097Z,0.2
2019-05-03T04:03:25.921Z,0.2
2019-05-03T04:04:35.734Z,0.1
2019-05-03T04:05:46.686Z,0.2
2019-05-03T04:07:00.735Z,0.1
2019-05-03T04:08:06.316Z,0.2
2019-05-03T04:09:16.181Z,0.1
2019-05-03T04:10:26.049Z,0.2
2019-05-03T04:11:35.075Z,0.1
2019-05-03T04:12:45.413Z,0.1
2019-05-03T04:13:55.892Z,0.1
2019-05-03T04:15:05.757Z,0.1
2019-05-03T04:16:18.432Z,0.2
2019-05-03T04:17:26.205Z,0.1
2019-05-03T04:18:36.101Z,0.2
2019-05-03T04:19:45.688Z,0.4
2019-05-03T04:20:55.903Z,0.4
2019-05-03T04:22:05.974Z,0.2
2019-05-03T04:23:16.188Z,0.2
2019-05-03T04:24:25.946Z,0.2
2019-05-03T04:25:35.665Z,0.2
2019-05-03T04:26:45.315Z,0.1
2019-05-03T04:27:56.007Z,0.3
2019-05-03T04:29:05.297Z,0.4
2019-05-03T04:30:16.415Z,0.3
2019-05-03T04:31:26.082Z,0.1
2019-05-03T04:32:35.952Z,0.4
2019-05-03T04:33:45.112Z,0.4
2019-05-03T04:34:55.888Z,0.4
2019-05-03T04:36:05.360Z,0.4
2019-05-03T04:37:16.091Z,0.2
2019-05-03T04:38:25.539Z,0.2
2019-05-03T04:39:36.048Z,0.2
2019-05-03T04:40:45.428Z,0.2
2019-05-03T04:41:55.926Z,0.3
2019-05-03T04:43:05.983Z,0.3
2019-05-03T04:44:15.695Z,0.2
2019-05-03T04:45:25.463Z,0.2
2019-05-03T04:46:35.836Z,0.2
2019-05-03T04:47:46.276Z,0.2
2019-05-03T04:48:56.056Z,0.3
2019-05-03T04:50:05.550Z,0.1
2019-05-03T04:51:16.621Z,0.2
2019-05-03T04:52:25.821Z,0.3
2019-05-03T04:53:35.822Z,0.3
2019-05-03T04:54:45.287Z,0.2
2019-05-03T04:55:55.869Z,0.2
2019-05-03T04:57:06.540Z,0.2
2019-05-03T04:58:16.073Z,0.3
2019-05-03T04:59:25.533Z,0.3
2019-05-03T05:00:35.791Z,0.3
2019-05-03T05:01:46.044Z,0.2
2019-05-03T05:02:55.683Z,0.2
2019-05-03T05:04:05.426Z,0.3
2019-05-03T05:05:15.328Z,0.3
2019-05-03T05:06:25.729Z,0.2
2019-05-03T05:07:35.093Z,0.2
2019-05-03T05:08:45.977Z,0.3
2019-05-03T05:09:56.111Z,0.6
2019-05-03T05:11:06.776Z,0.3
2019-05-03T05:12:16.304Z,0.7
2019-05-03T05:13:25.265Z,0.3
2019-05-03T05:14:35.325Z,0.3
2019-05-03T05:15:45.923Z,0.3
2019-05-03T05:16:55.632Z,0.4
2019-05-03T05:18:05.870Z,0.5
2019-05-03T05:19:15.222Z,0.5
2019-05-03T05:20:24.770Z,0.4
2019-05-03T05:21:35.499Z,0.3
2019-05-03T05:22:45.368Z,0.5
2019-05-03T05:23:54.884Z,0.5
2019-05-03T05:25:04.591Z,0.4
2019-05-03T05:26:14.440Z,0.2
2019-05-03T05:27:25.401Z,0.4
2019-05-03T05:28:35.458Z,0.4
2019-05-03T05:29:45.013Z,0.4
2019-05-03T05:30:54.585Z,0.5
2019-05-03T05:32:05.277Z,0.3
2019-05-03T05:33:14.534Z,0.4
2019-05-03T05:34:24.546Z,0.7
2019-05-03T05:35:35.197Z,0.4
2019-05-03T05:36:45.029Z,0.2
2019-05-03T05:37:54.653Z,0.3
2019-05-03T05:39:05.196Z,0.4
2019-05-03T05:40:15.605Z,0.4
2019-05-03T05:41:24.719Z,0.6
2019-05-03T05:42:34.956Z,0.3
2019-05-03T05:43:44.641Z,0.3
2019-05-03T05:44:55.645Z,0.4
2019-05-03T05:46:05.313Z,0.5
2019-05-03T05:47:14.951Z,0.5
2019-05-03T05:48:24.583Z,0.5
2019-05-03T05:49:35.087Z,0.4
2019-05-03T05:50:44.872Z,0.5
2019-05-03T05:51:54.649Z,0.3
2019-05-03T05:53:04.942Z,0.5
2019-05-03T05:54:14.497Z,0.3
2019-05-03T05:55:25.248Z,0.6
2019-05-03T05:56:35.318Z,0.4
2019-05-03T05:57:44.921Z,0.3
2019-05-03T05:58:55.354Z,0.5
2019-05-03T06:00:04.888Z,0.3
2019-05-03T06:01:14.573Z,0.2
2019-05-03T06:02:25.328Z,0.4
2019-05-03T06:03:34.710Z,0.5
2019-05-03T06:04:45.211Z,0.7
2019-05-03T06:05:54.947Z,0.3
2019-05-03T06:07:04.638Z,0.3
2019-05-03T06:08:15.064Z,0.3
2019-05-03T06:09:25.575Z,0.5
2019-05-03T06:10:34.897Z,0.3
2019-05-03T06:11:44.986Z,0.3
2019-05-03T06:12:54.509Z,0.5
2019-05-03T06:14:05.002Z,0.5
2019-05-03T06:15:14.987Z,0.5
2019-05-03T06:16:24.665Z,0.5
2019-05-03T06:17:34.814Z,0.3
2019-05-03T06:18:45.191Z,0.6
2019-05-03T06:19:55.007Z,0.5
2019-05-03T06:21:04.603Z,0.2
2019-05-03T06:22:15.343Z,0.3
2019-05-03T06:23:24.906Z,0.6
2019-05-03T06:24:34.909Z,0.6
2019-05-03T06:25:45.321Z,0.5
2019-05-03T06:26:54.615Z,0.5
2019-05-03T06:28:15.344Z,0.5
2019-05-03T06:29:14.938Z,0.4
2019-05-03T06:30:25.037Z,0.6
2019-05-03T06:31:34.541Z,0.9
2019-05-03T06:32:44.834Z,0.3
2019-05-03T06:33:55.225Z,0.6
2019-05-03T06:35:04.910Z,0.6
2019-05-03T06:36:15.223Z,0.3
2019-05-03T06:37:25.091Z,0.3
2019-05-03T06:38:34.722Z,0.6
2019-05-03T06:39:45.364Z,0.3
2019-05-03T06:40:54.792Z,0.6
2019-05-03T06:42:05.180Z,0.7
2019-05-03T06:43:15.718Z,0.4
2019-05-03T06:44:28.562Z,0.6
2019-05-03T06:45:35.870Z,0.5
2019-05-03T06:46:45.933Z,0.7
2019-05-03T06:47:55.129Z,0.5
2019-05-03T06:49:06.377Z,0.6
2019-05-03T06:50:19.371Z,0.5
2019-05-03T06:51:25.542Z,0.8
2019-05-03T06:52:35.192Z,0.4
2019-05-03T06:53:47.475Z,0.4
2019-05-03T06:54:55.387Z,0.7
2019-05-03T06:56:04.700Z,0.6
2019-05-03T06:57:14.753Z,0.6
2019-05-03T06:58:31.133Z,0.5
2019-05-03T06:59:35.847Z,0.4
2019-05-03T07:00:45.168Z,0.4
2019-05-03T07:01:55.219Z,0.6
2019-05-03T07:03:05.002Z,0.3
2019-05-03T07:04:15.211Z,0.5
2019-05-03T07:05:25.081Z,0.6
2019-05-03T07:06:40.246Z,0.6
2019-05-03T07:07:44.990Z,0.6
2019-05-03T07:08:55.474Z,0.6
2019-05-03T07:10:06.963Z,0.6
2019-05-03T07:11:16.846Z,0.9
2019-05-03T07:12:26.385Z,0.4
2019-05-03T07:13:36.190Z,0.4
2019-05-03T07:14:46.664Z,0.7
2019-05-03T07:15:56.223Z,0.7
2019-05-03T07:17:05.754Z,0.9
2019-05-03T07:18:15.791Z,0.4
2019-05-03T07:19:25.038Z,0.8
2019-05-03T07:20:35.277Z,1
2019-05-03T07:21:44.855Z,0.6
2019-05-03T07:22:55.679Z,1
2019-05-03T07:24:05.389Z,0.5
2019-05-03T07:25:14.911Z,0.7
2019-05-03T07:26:25.353Z,0.6
2019-05-03T07:27:35.003Z,0.5
2019-05-03T07:28:47.555Z,0.5
2019-05-03T07:29:55.577Z,0.7
2019-05-03T07:31:05.065Z,0.5
2019-05-03T07:32:15.569Z,0.9
2019-05-03T07:33:25.479Z,0.7
2019-05-03T07:34:35.159Z,0.6
2019-05-03T07:35:44.509Z,0.6
2019-05-03T07:36:55.501Z,0.8
2019-05-03T07:38:05.422Z,0.8
2019-05-03T07:39:14.804Z,0.7
2019-05-03T07:40:25.226Z,0.6
2019-05-03T07:41:35.599Z,0.6
2019-05-03T07:42:44.864Z,0.7
2019-05-03T07:43:54.987Z,1.1
2019-05-03T07:45:04.924Z,0.6
2019-05-03T07:46:14.675Z,0.6
2019-05-03T07:47:24.575Z,1
2019-05-03T07:48:35.306Z,0.6
2019-05-03T07:49:44.772Z,1
2019-05-03T07:50:54.625Z,0.6
2019-05-03T07:52:05.511Z,0.8
2019-05-03T07:53:14.998Z,0.6
2019-05-03T07:54:24.865Z,0.8
2019-05-03T07:55:35.247Z,0.7
2019-05-03T07:56:44.698Z,0.8
2019-05-03T07:57:55.447Z,0.7
2019-05-03T07:59:06.285Z,1
2019-05-03T08:00:15.235Z,1
2019-05-03T08:01:25.214Z,1.4
2019-05-03T08:02:35.904Z,0.7
2019-05-03T08:03:45.158Z,1.1
2019-05-03T08:04:54.853Z,0.6
2019-05-03T08:06:04.718Z,0.7
2019-05-03T08:07:20.501Z,0.6
2019-05-03T08:08:25.007Z,0.7
2019-05-03T08:09:35.001Z,0.9
2019-05-03T08:10:44.911Z,1.1
2019-05-03T08:11:54.794Z,0.9
2019-05-03T08:13:04.620Z,1.3
2019-05-03T08:14:16.057Z,1
2019-05-03T08:15:24.623Z,0.9
2019-05-03T08:16:35.219Z,0.7
2019-05-03T08:17:44.975Z,0.8
2019-05-03T08:18:55.728Z,0.9
2019-05-03T08:20:05.216Z,1.1
2019-05-03T08:21:14.993Z,0.8
2019-05-03T08:22:25.471Z,1
2019-05-03T08:23:35.322Z,0.9
2019-05-03T08:24:44.800Z,0.8
2019-05-03T08:25:55.599Z,1.1
2019-05-03T08:27:04.981Z,1
2019-05-03T08:28:14.557Z,1.1
2019-05-03T08:29:24.837Z,0.5
2019-05-03T08:30:35.402Z,0.9
2019-05-03T08:31:45.399Z,1.2
2019-05-03T08:32:55.052Z,0.9
2019-05-03T08:34:04.892Z,0.9
2019-05-03T08:35:15.233Z,1
2019-05-03T08:36:24.797Z,1.1
2019-05-03T08:37:34.894Z,1
2019-05-03T08:38:45.184Z,0.7
2019-05-03T08:39:55.136Z,1
2019-05-03T08:41:05.270Z,0.8
2019-05-03T08:42:14.918Z,0.8
2019-05-03T08:43:25.508Z,0.7
2019-05-03T08:44:35.318Z,1
2019-05-03T08:45:44.873Z,0.9
2019-05-03T08:46:56.364Z,0.6
2019-05-03T08:48:05.494Z,1
2019-05-03T08:49:15.009Z,0.9
2019-05-03T08:50:25.641Z,0.8
2019-05-03T08:51:35.203Z,1
2019-05-03T08:52:45.137Z,0.7
2019-05-03T08:53:55.915Z,1.2
2019-05-03T08:55:05.280Z,0.9
2019-05-03T08:56:15.621Z,0.7
2019-05-03T08:57:25.535Z,1
2019-05-03T08:58:34.863Z,0.5
2019-05-03T08:59:44.643Z,1
2019-05-03T09:00:54.652Z,1.1
2019-05-03T09:02:13.774Z,0.8
2019-05-03T09:03:14.758Z,0.6
2019-05-03T09:04:35.876Z,1.2
2019-05-03T09:05:35.944Z,0.8
2019-05-03T09:06:45.341Z,1.2
2019-05-03T09:07:55.041Z,0.8
2019-05-03T09:09:04.712Z,0.8
2019-05-03T09:10:16.746Z,0.8
2019-05-03T09:11:31.724Z,1
2019-05-03T09:12:34.958Z,0.8
2019-05-03T09:13:44.976Z,0.9
2019-05-03T09:14:54.593Z,1
2019-05-03T09:16:05.397Z,0.7
2019-05-03T09:17:15.231Z,0.8
2019-05-03T09:18:25.766Z,1
2019-05-03T09:19:35.118Z,0.7
2019-05-03T09:20:44.917Z,0.6
2019-05-03T09:21:54.823Z,0.5
2019-05-03T09:23:05.297Z,0.4
2019-05-03T09:24:15.158Z,1
2019-05-03T09:25:24.876Z,0.8
2019-05-03T09:26:34.796Z,0.6
2019-05-03T09:27:44.626Z,0.5
2019-05-03T09:28:55.382Z,0.8
2019-05-03T09:30:05.016Z,0.5
2019-05-03T09:31:15.438Z,0.9
2019-05-03T09:32:25.606Z,0.5
2019-05-03T09:33:35.640Z,0.6
2019-05-03T09:34:44.971Z,0.5
2019-05-03T09:35:55.485Z,0.5
2019-05-03T09:37:05.025Z,0.5
2019-05-03T09:38:15.113Z,0.2
2019-05-03T09:39:24.564Z,0.4
2019-05-03T09:40:35.189Z,0.2
2019-05-03T09:41:44.995Z,0.1
2019-05-03T09:42:55.160Z,0.3
2019-05-03T09:44:04.719Z,0.1
2019-05-03T09:45:15.337Z,0.2
2019-05-03T09:46:26.289Z,0.2
2019-05-03T09:47:35.330Z,0.1
2019-05-03T09:48:45.305Z,0.1
2019-05-03T09:49:55.811Z,0.1
2019-05-03T09:51:05.329Z,0.3
2019-05-03T09:52:15.983Z,0.3
2019-05-03T09:53:25.647Z,0.5
2019-05-03T09:54:34.940Z,0.1
2019-05-03T09:55:44.802Z,0.4
2019-05-03T09:56:57.646Z,0.1
2019-05-03T09:58:05.449Z,0.3
2019-05-03T09:59:15.046Z,0.1
2019-05-03T10:00:24.631Z,0.3
2019-05-03T10:01:34.637Z,0.3
2019-05-03T10:02:44.962Z,0.2
2019-05-03T10:03:54.850Z,0.2
2019-05-03T10:05:03.709Z,0.3
2019-05-03T10:06:15.161Z,0.1
2019-05-03T10:07:25.734Z,0.2
2019-05-03T10:08:35.777Z,0.3
2019-05-03T10:09:45.186Z,0.2
2019-05-03T10:10:54.356Z,0.4
2019-05-03T10:12:05.457Z,0.4
2019-05-03T10:13:23.146Z,0.1
2019-05-03T10:14:25.006Z,0.2
2019-05-03T10:15:34.527Z,0.1
2019-05-03T10:16:44.823Z,0.2
2019-05-03T10:17:55.437Z,0.2
2019-05-03T10:19:04.198Z,0.1
2019-05-03T10:20:15.301Z,0.2
2019-05-03T10:21:25.730Z,0.1
2019-05-03T10:22:34.957Z,0.4
2019-05-03T10:23:45.134Z,0.2
2019-05-03T10:24:55.013Z,0.1
2019-05-03T10:26:05.049Z,0.1
2019-05-03T10:27:15.190Z,0.2
2019-05-03T10:28:25.071Z,0.2
2019-05-03T10:29:33.950Z,0.1
2019-05-03T10:30:45.044Z,0.4
2019-05-03T10:31:54.532Z,0.2
2019-05-03T10:33:05.804Z,0.2
2019-05-03T10:34:15.506Z,0.2
2019-05-03T10:35:24.709Z,0.2
2019-05-03T10:36:35.609Z,0.3
2019-05-03T10:37:45.295Z,0.2
2019-05-03T10:38:55.333Z,0.2
2019-05-03T10:40:07.343Z,0.2
2019-05-03T10:41:15.178Z,0.2
2019-05-03T10:42:24.693Z,0.2
2019-05-03T10:43:35.432Z,0.4
2019-05-03T10:44:44.950Z,0.2
2019-05-03T10:45:55.766Z,0.2
2019-05-03T10:47:05.547Z,0.1
2019-05-03T10:48:15.408Z,0.1
2019-05-03T10:49:24.848Z,0.1
2019-05-03T10:50:34.925Z,0.2
2019-05-03T10:51:45.169Z,0.2
2019-05-03T10:52:55.439Z,0.1
2019-05-03T10:54:05.243Z,0.2
2019-05-03T10:55:15.867Z,0.2
2019-05-03T10:56:26.798Z,0.3
2019-05-03T10:57:35.600Z,0.2
2019-05-03T10:58:45.334Z,0.3
2019-05-03T10:59:55.500Z,0.1
2019-05-03T11:01:05.197Z,0.2
2019-05-03T11:02:14.582Z,0.2
2019-05-03T11:03:24.123Z,0.2
2019-05-03T11:04:35.559Z,0.3
2019-05-03T11:05:45.380Z,0.1
2019-05-03T11:06:55.062Z,0.2
2019-05-03T11:08:04.974Z,0.2
2019-05-03T11:09:15.214Z,0.2
2019-05-03T11:10:25.254Z,0.2
2019-05-03T11:11:35.254Z,0.3
2019-05-03T11:12:44.288Z,0.1
2019-05-03T11:13:53.865Z,0.2
2019-05-03T11:15:03.381Z,0.1
2019-05-03T11:16:14.712Z,0.2
2019-05-03T11:17:25.477Z,0.2
2019-05-03T11:18:34.532Z,0.3
2019-05-03T11:19:45.253Z,0.1
2019-05-03T11:20:54.557Z,0.2
2019-05-03T11:22:05.391Z,0.2
2019-05-03T11:23:14.586Z,0.2
2019-05-03T11:24:27.128Z,0.2
2019-05-03T11:25:34.488Z,0.2
2019-05-03T11:26:45.349Z,0.3
2019-05-03T11:27:55.178Z,0.1
2019-05-03T11:29:05.235Z,0.1
2019-05-03T11:30:15.733Z,0.4
2019-05-03T11:31:24.870Z,0.3
2019-05-03T11:32:35.247Z,0.2
2019-05-03T11:33:45.662Z,0.3
2019-05-03T11:34:55.337Z,0.3
2019-05-03T11:36:04.790Z,0.3
2019-05-03T11:37:14.565Z,0.2
2019-05-03T11:38:25.345Z,0.3
2019-05-03T11:39:34.493Z,0.1
2019-05-03T11:40:45.481Z,0.2
2019-05-03T11:41:54.403Z,0.2
2019-05-03T11:43:04.618Z,0.3
2019-05-03T11:44:15.398Z,0.3
2019-05-03T11:45:24.578Z,0.3
2019-05-03T11:46:35.305Z,0.2
2019-05-03T11:47:45.641Z,0.2
2019-05-03T11:48:54.912Z,0.2
2019-05-03T11:50:05.012Z,0.2
2019-05-03T11:51:15.177Z,0.2
2019-05-03T11:52:25.784Z,0.3
2019-05-03T11:53:35.585Z,0.2
2019-05-03T11:54:45.358Z,0.3
2019-05-03T11:55:55.117Z,0.3
2019-05-03T11:57:05.048Z,0.2
2019-05-03T11:58:14.959Z,0.2
2019-05-03T11:59:25.378Z,0.4
2019-05-03T12:00:34.670Z,0.3
2019-05-03T12:01:44.869Z,0.2
2019-05-03T12:02:55.562Z,0.2
2019-05-03T12:04:04.945Z,0.4
2019-05-03T12:05:15.105Z,0.2
2019-05-03T12:06:24.890Z,0.2
2019-05-03T12:07:39.730Z,0.1
2019-05-03T12:08:44.723Z,0.3
2019-05-03T12:09:54.647Z,0.2
2019-05-03T12:11:05.579Z,0.2
2019-05-03T12:12:15.167Z,0.1
2019-05-03T12:13:24.696Z,0.1
2019-05-03T12:14:34.601Z,0.4
2019-05-03T12:15:44.583Z,0.1
2019-05-03T12:17:12.910Z,0.2
2019-05-03T12:18:05.713Z,0.2
2019-05-03T12:19:19.500Z,0.2
2019-05-03T12:20:28.376Z,0.1
2019-05-03T12:21:37.366Z,0.2
2019-05-03T12:22:47.331Z,0.3
2019-05-03T12:23:57.351Z,0
2019-05-03T12:25:10.002Z,0.1
2019-05-03T12:26:17.968Z,0.2
2019-05-03T12:27:27.517Z,0.2
2019-05-03T12:28:37.036Z,0.3
2019-05-03T12:29:46.549Z,0.3
2019-05-03T12:30:56.074Z,0.2
2019-05-03T12:32:05.587Z,0.3
2019-05-03T12:33:15.459Z,0.3
2019-05-03T12:34:25.572Z,0.2
2019-05-03T12:35:35.702Z,0.4
2019-05-03T12:36:44.704Z,0.4
2019-05-03T12:37:55.508Z,0.4
2019-05-03T12:39:05.629Z,0.3
2019-05-03T12:40:14.889Z,0.4
2019-05-03T12:41:25.402Z,0.5
2019-05-03T12:42:35.412Z,0.3
2019-05-03T12:43:44.845Z,0.3
2019-05-03T12:44:55.134Z,0.3
2019-05-03T12:46:05.076Z,0.4
2019-05-03T12:47:14.670Z,0.4
2019-05-03T12:48:24.605Z,0.5
2019-05-03T12:49:35.580Z,0.6
2019-05-03T12:50:46.176Z,0.5
2019-05-03T12:51:55.759Z,0.5
2019-05-03T12:53:04.720Z,0.5
2019-05-03T12:54:15.193Z,0.4
2019-05-03T12:55:24.729Z,0.6
2019-05-03T12:56:35.772Z,0.5
2019-05-03T12:57:45.690Z,0.4
2019-05-03T12:58:55.120Z,0.5
2019-05-03T13:00:05.003Z,0.6
2019-05-03T13:01:15.663Z,0.6
2019-05-03T13:02:24.827Z,0.5
2019-05-03T13:03:33.809Z,0.4
2019-05-03T13:04:44.656Z,0.8
2019-05-03T13:05:55.569Z,0.7
2019-05-03T13:07:05.420Z,0.8
2019-05-03T13:08:15.234Z,0.7
2019-05-03T13:09:25.167Z,0.7
2019-05-03T13:10:34.609Z,0.7
2019-05-03T13:11:52.750Z,0.8
2019-05-03T13:12:55.848Z,0.6
2019-05-03T13:14:04.822Z,0.7
2019-05-03T13:15:14.428Z,0.7
2019-05-03T13:16:24.669Z,0.7
2019-05-03T13:17:33.977Z,0.8
2019-05-03T13:18:45.494Z,0.9
2019-05-03T13:19:54.654Z,1.1
2019-05-03T13:21:05.684Z,1.5
2019-05-03T13:22:14.076Z,1.8
2019-05-03T13:23:25.280Z,1.6
2019-05-03T13:24:34.713Z,1.1
2019-05-03T13:25:44.728Z,1.2
2019-05-03T13:26:54.186Z,0.8
2019-05-03T13:28:05.455Z,0.5
2019-05-03T13:29:15.256Z,0.7
2019-05-03T13:30:25.119Z,0.6
2019-05-03T13:31:34.712Z,0.5
2019-05-03T13:32:45.463Z,0.6
2019-05-03T13:33:54.897Z,0.4
2019-05-03T13:35:05.759Z,0.7
2019-05-03T13:36:15.165Z,0.5
2019-05-03T13:37:25.345Z,0.7
2019-05-03T13:38:34.914Z,0.7
2019-05-03T13:39:45.046Z,0.6
2019-05-03T13:40:54.445Z,0.8
2019-05-03T13:42:05.630Z,0.7
2019-05-03T13:43:14.988Z,0.4
2019-05-03T13:44:24.747Z,0.4
2019-05-03T13:45:35.348Z,0.4
2019-05-03T13:46:44.681Z,0.5
2019-05-03T13:47:55.226Z,0.2
2019-05-03T13:49:05.372Z,0.6
2019-05-03T13:50:15.096Z,0.7
2019-05-03T13:51:25.287Z,0.5
2019-05-03T13:52:34.744Z,0.4
2019-05-03T13:53:44.230Z,0.7
2019-05-03T13:54:54.568Z,0.7
2019-05-03T13:56:04.707Z,0.8
2019-05-03T13:57:15.382Z,0.7
2019-05-03T13:58:26.173Z,0.5
2019-05-03T13:59:34.849Z,0.5
2019-05-03T14:00:45.292Z,0.6
2019-05-03T14:01:54.917Z,0.6
2019-05-03T14:03:04.686Z,0.6
2019-05-03T14:04:14.739Z,0.5
2019-05-03T14:05:24.522Z,0.6
2019-05-03T14:06:36.501Z,0.6
2019-05-03T14:07:44.654Z,0.9
2019-05-03T14:08:54.784Z,0.5
2019-05-03T14:10:03.517Z,0.7
2019-05-03T14:11:13.052Z,0.5
2019-05-03T14:12:23.952Z,1
2019-05-03T14:13:35.075Z,0.6
2019-05-03T14:14:45.341Z,0.4
2019-05-03T14:15:54.764Z,0.6
2019-05-03T14:17:05.242Z,0.7
2019-05-03T14:18:15.205Z,0.6
2019-05-03T14:19:25.241Z,0.5
2019-05-03T14:20:35.082Z,0.6
2019-05-03T14:21:44.671Z,0.7
2019-05-03T14:22:54.203Z,0.7
2019-05-03T14:24:05.068Z,0.6
2019-05-03T14:25:15.124Z,0.4
2019-05-03T14:26:24.805Z,0.5
2019-05-03T14:27:34.784Z,0.7
2019-05-03T14:28:45.172Z,0.4
2019-05-03T14:29:54.863Z,0.7
2019-05-03T14:31:05.191Z,0.6
2019-05-03T14:32:25.309Z,0.4
2019-05-03T14:33:26.815Z,0.7
2019-05-03T14:34:35.879Z,0.5
2019-05-03T14:35:45.261Z,0.6
2019-05-03T14:36:55.409Z,0.8
2019-05-03T14:38:05.891Z,0.8
2019-05-03T14:39:15.454Z,0.6
2019-05-03T14:40:25.229Z,0.3
2019-05-03T14:41:34.489Z,0.7
2019-05-03T14:42:44.605Z,0.3
2019-05-03T14:43:55.614Z,0.7
2019-05-03T14:45:04.525Z,0.5
2019-05-03T14:46:15.055Z,0.6
2019-05-03T14:47:25.183Z,0.6
2019-05-03T14:48:35.085Z,0.7
2019-05-03T14:49:44.115Z,0.5
2019-05-03T14:50:54.890Z,0.7
2019-05-03T14:52:05.525Z,0.4
2019-05-03T14:53:14.848Z,0.6
2019-05-03T14:54:24.879Z,0.6
2019-05-03T14:55:34.611Z,0.8
2019-05-03T14:56:45.486Z,0.4
2019-05-03T14:57:55.236Z,0.5
2019-05-03T14:59:04.331Z,0.5
2019-05-03T15:00:16.654Z,0.5
2019-05-03T15:01:24.846Z,0.5
2019-05-03T15:02:43.396Z,0.6
2019-05-03T15:03:44.439Z,0.6
2019-05-03T15:04:54.796Z,0.5
2019-05-03T15:06:05.129Z,0.8
2019-05-03T15:07:15.314Z,0.6
2019-05-03T15:08:25.618Z,0.9
2019-05-03T15:09:35.362Z,0.8
2019-05-03T15:10:45.591Z,0.5
2019-05-03T15:11:55.109Z,0.8
2019-05-03T15:13:05.187Z,0.6
2019-05-03T15:14:14.512Z,0.7
2019-05-03T15:15:25.053Z,0.4
2019-05-03T15:16:34.420Z,0.6
2019-05-03T15:17:45.657Z,0.7
2019-05-03T15:18:54.798Z,0.7
2019-05-03T15:20:03.836Z,0.6
2019-05-03T15:21:14.575Z,0.7
2019-05-03T15:22:25.307Z,0.6
2019-05-03T15:23:34.835Z,0.6
2019-05-03T15:24:45.041Z,0.8
2019-05-03T15:25:54.704Z,0.5
2019-05-03T15:27:04.818Z,0.7
2019-05-03T15:28:13.543Z,0.5
2019-05-03T15:29:24.653Z,0.7
2019-05-03T15:30:35.183Z,0.7
2019-05-03T15:31:44.728Z,0.7
2019-05-03T15:32:59.752Z,0.4
2019-05-03T15:34:04.673Z,0.5
2019-05-03T15:35:15.173Z,0.4
2019-05-03T15:36:24.205Z,0.5
2019-05-03T15:37:35.621Z,0.6
2019-05-03T15:38:44.595Z,0.5
2019-05-03T15:39:54.610Z,0.3
2019-05-03T15:41:05.148Z,0.6
2019-05-03T15:42:14.570Z,0.4
2019-05-03T15:43:26.400Z,0.5
2019-05-03T15:44:34.162Z,0.7
2019-05-03T15:45:45.024Z,0.5
2019-05-03T15:46:54.515Z,0.6
2019-05-03T15:48:04.428Z,0.5
2019-05-03T15:49:15.204Z,0.5
2019-05-03T15:50:25.059Z,0.7
2019-05-03T15:51:33.988Z,0.6
2019-05-03T15:52:44.435Z,0.5
2019-05-03T15:53:55.081Z,0.8
2019-05-03T15:55:04.698Z,0.7
2019-05-03T15:56:14.646Z,0.6
2019-05-03T15:57:25.208Z,0.5
2019-05-03T15:58:34.097Z,0.5
2019-05-03T15:59:44.483Z,0.7
2019-05-03T16:00:55.149Z,0.7
2019-05-03T16:02:04.585Z,0.8
2019-05-03T16:03:14.575Z,0.7
2019-05-03T16:04:25.028Z,0.4
2019-05-03T16:05:35.473Z,0.6
2019-05-03T16:06:44.901Z,0.6